Time;durP1;ratioP1;P1;durP2;ratioP2;P2;SDS_P1;SDS_P2;PMS_P1;PMS_P2;Temp;Humidity;BMP_temperature;BMP_pressure;BME280_temperature;BME280_humidity;BME280_pressure;Samples;Min_cycle;Max_cycle;Signal;HPM_P1;HPM_P2
2022/09/24 00:01:03;;;;;;;;;;;;;;;6.72;100.00;99020.91;2242115;79;20425;-57
2022/09/24 00:04:06;;;;;;;;;;;;;;;6.76;100.00;99023.75;2241954;79;20142;-56
2022/09/24 00:07:07;;;;;;;;;;;;;;;6.92;100.00;99027.88;2242973;79;20161;-58
2022/09/24 00:10:09;;;;;;;;;;;;;;;6.96;100.00;99022.53;2243405;79;20400;-58
2022/09/24 00:13:11;;;;;;;;;;;;;;;6.91;100.00;99022.27;2243538;79;20090;-58
2022/09/24 00:16:12;;;;;;;;;;;;;;;6.96;100.00;99018.16;2245443;79;20173;-58
2022/09/24 00:19:14;;;;;;;;;;;;;;;6.99;100.00;99015.88;2245193;79;20130;-58
2022/09/24 00:22:15;;;;;;;;;;;;;;;7.01;100.00;99009.69;2244270;79;20448;-58
2022/09/24 00:28:20;;;;;;;;;;;;;;;7.04;100.00;99009.98;2220046;79;20192;-58
2022/09/24 00:31:22;;;;;;;;;;;;;;;6.94;100.00;99012.17;2243245;79;20200;-58
2022/09/24 00:34:23;;;;;;;;;;;;;;;6.86;100.00;99006.42;2241757;79;20574;-57
2022/09/24 00:37:27;;;;;;;;;;;;;;;6.91;100.00;99004.02;2241172;79;20224;-57
2022/09/24 00:40:28;;;;;;;;;;;;;;;6.98;100.00;99001.97;2200706;78;20102;-58
2022/09/24 00:43:29;;;;;;;;;;;;;;;7.13;100.00;99000.94;2236365;79;20372;-58
2022/09/24 00:46:31;;;;;;;;;;;;;;;7.22;100.00;98993.52;2237308;79;20102;-58
2022/09/24 00:49:33;;;;;;;;;;;;;;;7.19;100.00;98993.66;2237679;79;20083;-58
2022/09/24 00:52:34;;;;;;;;;;;;;;;7.20;100.00;98991.45;2239503;78;20094;-58
2022/09/24 00:55:35;;;;;;;;;;;;;;;7.23;100.00;98990.48;2239171;79;20098;-58
2022/09/24 00:58:37;;;;;;;;;;;;;;;7.23;100.00;98988.70;2244379;79;20106;-58
2022/09/24 01:01:39;;;;;;;;;;;;;;;7.39;100.00;98982.33;2243353;79;20094;-59
2022/09/24 01:04:40;;;;;;;;;;;;;;;7.50;100.00;98984.91;2211139;80;20471;-58
2022/09/24 01:07:42;;;;;;;;;;;;;;;7.44;100.00;98982.98;2207301;80;20176;-58
2022/09/24 01:13:47;;;;;;;;;;;;;;;7.50;100.00;98980.99;2217405;79;20107;-58
2022/09/24 01:16:48;;;;;;;;;;;;;;;7.55;100.00;98977.72;2241033;79;20114;-58
2022/09/24 01:19:52;;;;;;;;;;;;;;;7.37;100.00;98969.83;2238620;79;20133;-58
2022/09/24 01:22:54;;;;;;;;;;;;;;;7.45;100.00;98971.60;2231192;79;20107;-58
2022/09/24 01:25:58;;;;;;;;;;;;;;;7.47;100.00;98971.56;2232885;79;20162;-58
2022/09/24 01:28:59;;;;;;;;;;;;;;;7.50;100.00;98971.42;2214530;79;20149;-58
2022/09/24 01:32:00;;;;;;;;;;;;;;;7.57;100.00;98968.05;2241564;79;20201;-57
2022/09/24 01:35:03;;;;;;;;;;;;;;;7.57;100.00;98965.44;2242456;79;20130;-58
2022/09/24 01:38:04;;;;;;;;;;;;;;;7.47;100.00;98967.65;2243532;79;20130;-57
2022/09/24 01:41:06;;;;;;;;;;;;;;;7.42;100.00;98961.31;2244064;79;20373;-58
2022/09/24 01:44:08;;;;;;;;;;;;;;;7.58;100.00;98958.00;2243162;79;20460;-58
2022/09/24 01:47:11;;;;;;;;;;;;;;;7.56;100.00;98956.77;2242869;79;20147;-58
2022/09/24 01:50:15;;;;;;;;;;;;;;;7.58;100.00;98954.09;2243667;79;20146;-58
2022/09/24 01:53:16;;;;;;;;;;;;;;;7.59;100.00;98955.31;2242618;79;20158;-57
2022/09/24 01:56:18;;;;;;;;;;;;;;;7.71;100.00;98959.11;2249618;79;20665;-57
2022/09/24 01:59:21;;;;;;;;;;;;;;;7.51;100.00;98951.38;2219822;79;20099;-57
2022/09/24 02:02:26;;;;;;;;;;;;;;;7.45;100.00;98949.89;2239030;79;20388;-57
2022/09/24 02:05:26;;;;;;;;;;;;;;;7.53;100.00;98950.39;2215403;79;20095;-57
2022/09/24 02:08:27;;;;;;;;;;;;;;;7.69;100.00;98943.16;2242458;79;20158;-57
2022/09/24 02:11:28;;;;;;;;;;;;;;;7.73;100.00;98946.84;2244170;79;20097;-58
2022/09/24 02:14:30;;;;;;;;;;;;;;;7.70;100.00;98944.39;2242067;79;20113;-58
2022/09/24 02:17:32;;;;;;;;;;;;;;;7.69;100.00;98936.16;2242958;79;20133;-58
2022/09/24 02:20:34;;;;;;;;;;;;;;;7.73;100.00;98933.79;2242409;79;20141;-58
2022/09/24 02:23:36;;;;;;;;;;;;;;;7.74;100.00;98934.63;2240924;79;20130;-58
2022/09/24 02:26:37;;;;;;;;;;;;;;;7.75;100.00;98929.33;2242905;79;20385;-58
2022/09/24 02:29:39;;;;;;;;;;;;;;;7.80;100.00;98928.66;2240303;79;20173;-58
2022/09/24 02:32:41;;;;;;;;;;;;;;;7.67;100.00;98934.09;2244778;79;20377;-58
2022/09/24 02:35:42;;;;;;;;;;;;;;;7.56;100.00;98928.52;2240668;79;20090;-57
2022/09/24 02:38:45;;;;;;;;;;;;;;;7.58;100.00;98924.90;2243574;79;20106;-58
2022/09/24 02:41:47;;;;;;;;;;;;;;;7.64;100.00;98927.69;2244090;79;20110;-57
2022/09/24 02:44:49;;;;;;;;;;;;;;;7.73;100.00;98930.31;2243775;79;20393;-57
2022/09/24 02:47:51;;;;;;;;;;;;;;;7.64;100.00;98927.69;2246046;79;20094;-58
2022/09/24 02:50:52;;;;;;;;;;;;;;;7.71;100.00;98924.33;2242016;79;20130;-59
2022/09/24 02:53:54;;;;;;;;;;;;;;;7.74;100.00;98926.35;2246885;79;20448;-57
2022/09/24 02:56:55;;;;;;;;;;;;;;;7.76;100.00;98921.05;2240951;79;20150;-58
2022/09/24 02:59:57;;;;;;;;;;;;;;;7.74;100.00;98922.88;2243148;79;20091;-58
2022/09/24 03:02:58;;;;;;;;;;;;;;;7.72;100.00;98936.00;2241261;79;20104;-58
2022/09/24 03:06:00;;;;;;;;;;;;;;;7.49;100.00;98936.26;2241436;79;20139;-57
2022/09/24 03:09:02;;;;;;;;;;;;;;;7.60;100.00;98927.44;2240462;79;20428;-58
2022/09/24 03:12:04;;;;;;;;;;;;;;;7.67;100.00;98922.34;2242159;79;20533;-57
2022/09/24 03:15:06;;;;;;;;;;;;;;;7.74;100.00;98925.05;2246375;79;20236;-58
2022/09/24 03:18:08;;;;;;;;;;;;;;;7.75;100.00;98924.11;2242253;79;20197;-58
2022/09/24 03:21:09;;;;;;;;;;;;;;;7.86;100.00;98924.91;2241351;79;20559;-58
2022/09/24 03:24:10;;;;;;;;;;;;;;;7.87;100.00;98916.13;2244368;79;20106;-58
2022/09/24 03:27:12;;;;;;;;;;;;;;;7.85;100.00;98917.16;2243138;79;20438;-58
2022/09/24 03:33:17;;;;;;;;;;;;;;;7.93;100.00;98914.99;2216737;79;20130;-58
2022/09/24 03:36:19;;;;;;;;;;;;;;;7.95;100.00;98917.09;2253616;79;20200;-58
2022/09/24 03:39:21;;;;;;;;;;;;;;;7.98;100.00;98910.40;2243713;79;20091;-58
2022/09/24 03:42:22;;;;;;;;;;;;;;;8.02;100.00;98911.95;2244868;79;20186;-59
2022/09/24 03:45:24;;;;;;;;;;;;;;;8.06;100.00;98904.34;2244121;79;20142;-57
2022/09/24 03:48:26;;;;;;;;;;;;;;;8.07;100.00;98903.41;2237520;79;20126;-58
2022/09/24 03:51:28;;;;;;;;;;;;;;;8.07;100.00;98900.80;2241537;79;20556;-58
2022/09/24 03:54:30;;;;;;;;;;;;;;;8.04;100.00;98907.48;2240956;79;20101;-57
2022/09/24 03:57:31;;;;;;;;;;;;;;;8.09;100.00;98905.50;2241868;79;20102;-57
2022/09/24 04:00:33;;;;;;;;;;;;;;;8.19;100.00;98910.25;2244822;79;20396;-57
2022/09/24 04:03:35;;;;;;;;;;;;;;;8.14;100.00;98908.71;2243270;79;20094;-57
2022/09/24 04:06:37;;;;;;;;;;;;;;;8.13;100.00;98904.43;2248788;79;20094;-58
2022/09/24 04:09:38;;;;;;;;;;;;;;;8.09;100.00;98910.72;2242389;79;20597;-58
2022/09/24 04:12:42;;;;;;;;;;;;;;;8.08;100.00;98909.02;2241452;79;20240;-58
2022/09/24 04:15:43;;;;;;;;;;;;;;;8.10;100.00;98911.12;2216884;78;20393;-58
2022/09/24 04:18:46;;;;;;;;;;;;;;;8.14;100.00;98913.94;2239536;79;20102;-58
2022/09/24 04:21:48;;;;;;;;;;;;;;;8.24;100.00;98913.50;2242700;79;20093;-57
2022/09/24 04:24:50;;;;;;;;;;;;;;;8.19;100.00;98914.17;2245610;79;20373;-58
2022/09/24 04:27:51;;;;;;;;;;;;;;;8.13;100.00;98916.19;2246741;79;20125;-58
2022/09/24 04:30:53;;;;;;;;;;;;;;;8.18;100.00;98918.56;2243971;79;20110;-58
2022/09/24 04:33:54;;;;;;;;;;;;;;;8.26;100.00;98922.95;2242993;79;20543;-58
2022/09/24 04:36:56;;;;;;;;;;;;;;;8.22;100.00;98914.88;2243404;79;20180;-58
2022/09/24 04:39:58;;;;;;;;;;;;;;;8.18;100.00;98913.81;2240513;79;20288;-58
2022/09/24 04:42:59;;;;;;;;;;;;;;;8.14;100.00;98916.55;2243066;79;20185;-58
2022/09/24 04:46:02;;;;;;;;;;;;;;;8.27;100.00;98919.40;2242541;79;20094;-58
2022/09/24 04:49:04;;;;;;;;;;;;;;;8.46;100.00;98911.53;2240362;79;20114;-58
2022/09/24 04:52:05;;;;;;;;;;;;;;;8.38;100.00;98911.50;2246785;79;20125;-58
2022/09/24 04:55:07;;;;;;;;;;;;;;;8.38;100.00;98904.97;2243223;79;20110;-57
2022/09/24 04:58:08;;;;;;;;;;;;;;;8.30;100.00;98903.59;2241333;79;20441;-58
2022/09/24 05:01:12;;;;;;;;;;;;;;;8.32;100.00;98903.51;2242189;79;20079;-58
2022/09/24 05:04:13;;;;;;;;;;;;;;;8.36;100.00;98901.57;2247342;79;20142;-57
2022/09/24 05:07:14;;;;;;;;;;;;;;;8.25;100.00;98896.43;2243872;79;20114;-58
2022/09/24 05:10:16;;;;;;;;;;;;;;;8.13;100.00;98904.87;2244650;79;20166;-58
2022/09/24 05:13:17;;;;;;;;;;;;;;;8.13;100.00;98903.56;2241083;79;20270;-58
2022/09/24 05:16:19;;;;;;;;;;;;;;;8.24;100.00;98896.03;2244933;79;20587;-58
2022/09/24 05:19:20;;;;;;;;;;;;;;;8.35;100.00;98893.34;2242456;79;20219;-58
2022/09/24 05:22:22;;;;;;;;;;;;;;;8.41;100.00;98898.28;2242807;79;20200;-58
2022/09/24 05:25:23;;;;;;;;;;;;;;;8.48;100.00;98890.06;2244513;79;20099;-59
2022/09/24 05:28:25;;;;;;;;;;;;;;;8.62;100.00;98887.19;2243860;79;20154;-58
2022/09/24 05:31:26;;;;;;;;;;;;;;;8.61;100.00;98886.35;2240349;79;20397;-58
2022/09/24 05:34:29;;;;;;;;;;;;;;;8.69;100.00;98885.11;2243975;79;20150;-58
2022/09/24 05:37:30;;;;;;;;;;;;;;;8.78;100.00;98887.26;2242540;79;20118;-58
2022/09/24 05:43:35;;;;;;;;;;;;;;;8.94;100.00;98885.98;2206218;78;20138;-57
2022/09/24 05:46:37;;;;;;;;;;;;;;;9.05;100.00;98891.93;2244925;79;20098;-57
2022/09/24 05:49:38;;;;;;;;;;;;;;;9.11;100.00;98886.39;2246606;79;20090;-58
2022/09/24 05:52:40;;;;;;;;;;;;;;;9.24;100.00;98893.95;2243860;79;20381;-57
2022/09/24 05:55:42;;;;;;;;;;;;;;;9.25;100.00;98895.64;2242558;79;20395;-58
2022/09/24 05:58:44;;;;;;;;;;;;;;;9.32;100.00;98897.00;2242768;79;20191;-57
2022/09/24 06:01:46;;;;;;;;;;;;;;;9.47;100.00;98901.01;2240793;79;20354;-57
2022/09/24 06:04:48;;;;;;;;;;;;;;;9.64;100.00;98902.22;2243985;79;20435;-57
2022/09/24 06:07:49;;;;;;;;;;;;;;;9.85;100.00;98901.45;2247448;79;20125;-58
2022/09/24 06:10:53;;;;;;;;;;;;;;;10.06;100.00;98898.56;2243416;79;20321;-57
2022/09/24 06:13:54;;;;;;;;;;;;;;;10.23;100.00;98902.34;2239479;79;20126;-58
2022/09/24 06:16:55;;;;;;;;;;;;;;;10.38;100.00;98901.10;2241743;79;20157;-59
2022/09/24 06:19:57;;;;;;;;;;;;;;;10.56;100.00;98898.70;2243230;79;20094;-58
2022/09/24 06:22:58;;;;;;;;;;;;;;;10.72;100.00;98903.87;2245041;79;20126;-58
2022/09/24 06:26:00;;;;;;;;;;;;;;;10.88;100.00;98901.63;2242938;79;20094;-58
2022/09/24 06:29:01;;;;;;;;;;;;;;;11.03;100.00;98902.02;2243933;79;20102;-58
2022/09/24 06:32:03;;;;;;;;;;;;;;;11.16;100.00;98898.16;2241269;79;20394;-58
2022/09/24 06:35:05;;;;;;;;;;;;;;;11.31;100.00;98904.70;2242405;79;20106;-58
2022/09/24 06:38:07;;;;;;;;;;;;;;;11.47;100.00;98908.52;2244291;79;20192;-58
2022/09/24 06:41:08;;;;;;;;;;;;;;;11.65;100.00;98901.23;2242545;79;20733;-58
2022/09/24 06:44:10;;;;;;;;;;;;;;;11.79;100.00;98903.36;2243097;79;20192;-58
2022/09/24 06:47:12;;;;;;;;;;;;;;;12.00;100.00;98903.41;2245649;79;20193;-58
2022/09/24 06:50:13;;;;;;;;;;;;;;;12.18;100.00;98906.11;2242296;79;20135;-58
2022/09/24 06:53:15;;;;;;;;;;;;;;;12.31;100.00;98903.50;2244848;79;20185;-58
2022/09/24 06:56:17;;;;;;;;;;;;;;;12.47;100.00;98904.66;2242220;79;20471;-57
2022/09/24 06:59:18;;;;;;;;;;;;;;;12.56;100.00;98904.50;2244028;79;20134;-58
2022/09/24 07:02:20;;;;;;;;;;;;;;;12.68;100.00;98899.70;2245693;79;20117;-58
2022/09/24 07:05:21;;;;;;;;;;;;;;;12.76;100.00;98901.83;2243713;79;20138;-58
2022/09/24 07:08:23;;;;;;;;;;;;;;;12.79;100.00;98914.77;2239977;79;20117;-58
2022/09/24 07:11:24;;;;;;;;;;;;;;;13.00;100.00;98904.52;2245070;79;20404;-59
2022/09/24 07:14:26;;;;;;;;;;;;;;;13.20;100.00;98911.03;2242170;79;20094;-58
2022/09/24 07:17:27;;;;;;;;;;;;;;;13.43;100.00;98909.45;2243633;79;20598;-58
2022/09/24 07:20:29;;;;;;;;;;;;;;;13.73;100.00;98916.08;2241127;79;20130;-58
2022/09/24 07:23:30;;;;;;;;;;;;;;;13.95;100.00;98909.23;2244664;79;20106;-59
2022/09/24 07:26:32;;;;;;;;;;;;;;;13.98;100.00;98909.86;2242540;79;20121;-59
2022/09/24 07:29:33;;;;;;;;;;;;;;;14.18;100.00;98916.79;2244261;79;20142;-58
2022/09/24 07:32:35;;;;;;;;;;;;;;;14.33;100.00;98916.94;2243288;79;20101;-58
2022/09/24 07:35:36;;;;;;;;;;;;;;;14.53;100.00;98922.03;2241875;79;20169;-58
2022/09/24 07:38:38;;;;;;;;;;;;;;;14.82;100.00;98920.80;2244924;79;20412;-58
2022/09/24 07:41:41;;;;;;;;;;;;;;;14.95;100.00;98924.17;2243736;79;20188;-57
2022/09/24 07:44:42;;;;;;;;;;;;;;;15.07;100.00;98925.86;2241913;79;20197;-57
2022/09/24 07:47:44;;;;;;;;;;;;;;;15.10;100.00;98929.22;2244387;79;20086;-58
2022/09/24 07:50:45;;;;;;;;;;;;;;;15.22;100.00;98924.30;2250493;79;20105;-58
2022/09/24 07:53:47;;;;;;;;;;;;;;;15.40;100.00;98924.17;2243952;79;20095;-58
2022/09/24 07:56:51;;;;;;;;;;;;;;;15.66;100.00;98926.53;2213565;79;20122;-57
2022/09/24 07:59:52;;;;;;;;;;;;;;;15.93;100.00;98919.98;2227347;79;20106;-58
2022/09/24 08:02:55;;;;;;;;;;;;;;;16.20;100.00;98923.48;2245035;79;20095;-59
2022/09/24 08:05:58;;;;;;;;;;;;;;;16.38;100.00;98929.56;2237111;79;20169;-58
2022/09/24 08:09:01;;;;;;;;;;;;;;;16.55;100.00;98922.36;2239541;79;20166;-59
2022/09/24 08:12:02;;;;;;;;;;;;;;;16.67;100.00;98924.95;2243227;79;20252;-58
2022/09/24 08:15:04;;;;;;;;;;;;;;;16.59;100.00;98926.90;2242257;79;20546;-57
2022/09/24 08:18:05;;;;;;;;;;;;;;;16.72;100.00;98924.05;2244632;79;20101;-58
2022/09/24 08:21:08;;;;;;;;;;;;;;;16.81;100.00;98924.61;2237416;79;20170;-58
2022/09/24 08:24:09;;;;;;;;;;;;;;;16.96;100.00;98921.98;2244259;79;20192;-58
2022/09/24 08:27:11;;;;;;;;;;;;;;;17.07;100.00;98920.24;2242097;79;20106;-59
2022/09/24 08:30:12;;;;;;;;;;;;;;;17.12;100.00;98916.69;2241557;79;20086;-59
2022/09/24 08:33:14;;;;;;;;;;;;;;;17.19;100.00;98925.79;2241924;79;20150;-59
2022/09/24 08:36:17;;;;;;;;;;;;;;;17.59;100.00;98924.94;2242655;79;20404;-59
2022/09/24 08:39:19;;;;;;;;;;;;;;;17.94;100.00;98921.47;2242414;79;20192;-58
2022/09/24 08:42:20;;;;;;;;;;;;;;;18.03;100.00;98922.45;2245595;79;20150;-59
2022/09/24 08:48:25;;;;;;;;;;;;;;;18.49;100.00;98920.92;2218487;79;20098;-58
2022/09/24 08:51:26;;;;;;;;;;;;;;;18.64;100.00;98926.61;2245089;79;20149;-59
2022/09/24 08:54:28;;;;;;;;;;;;;;;18.71;100.00;98923.73;2240873;79;20217;-58
2022/09/24 08:57:29;;;;;;;;;;;;;;;19.06;100.00;98922.75;2242870;79;20455;-58
2022/09/24 09:00:31;;;;;;;;;;;;;;;19.06;100.00;98917.44;2243292;79;20160;-58
2022/09/24 09:03:32;;;;;;;;;;;;;;;19.01;100.00;98916.05;2240130;79;20381;-59
2022/09/24 09:06:34;;;;;;;;;;;;;;;19.06;100.00;98914.78;2241070;79;20129;-59
2022/09/24 09:09:35;;;;;;;;;;;;;;;19.04;100.00;98910.44;2242991;79;20106;-59
2022/09/24 09:12:36;;;;;;;;;;;;;;;19.11;100.00;98912.53;2248555;79;20161;-59
2022/09/24 09:15:38;;;;;;;;;;;;;;;19.08;100.00;98911.00;2242062;79;20106;-58
2022/09/24 09:18:40;;;;;;;;;;;;;;;19.14;100.00;98910.91;2241969;79;20111;-59
2022/09/24 09:21:42;;;;;;;;;;;;;;;19.41;100.00;98911.88;2240217;79;20205;-59
2022/09/24 09:24:43;;;;;;;;;;;;;;;19.37;97.89;98905.53;2237299;79;20441;-59
2022/09/24 09:27:45;;;;;;;;;;;;;;;19.35;100.00;98904.00;2250859;79;20196;-59
2022/09/24 09:30:46;;;;;;;;;;;;;;;19.70;100.00;98915.22;2248634;79;20185;-58
2022/09/24 09:33:48;;;;;;;;;;;;;;;19.88;98.60;98904.64;2239447;79;20237;-59
2022/09/24 09:36:52;;;;;;;;;;;;;;;19.87;96.29;98906.13;2240811;79;20177;-59
2022/09/24 09:39:53;;;;;;;;;;;;;;;19.94;95.66;98901.86;2219986;79;20220;-59
2022/09/24 09:42:54;;;;;;;;;;;;;;;20.07;94.65;98899.64;2243706;79;20131;-60
2022/09/24 09:45:55;;;;;;;;;;;;;;;20.17;92.22;98901.38;2240899;79;20094;-59
2022/09/24 09:48:57;;;;;;;;;;;;;;;20.09;91.32;98903.48;2245429;79;20143;-60
2022/09/24 09:51:58;;;;;;;;;;;;;;;20.17;92.52;98902.71;2242889;79;20094;-59
2022/09/24 09:55:00;;;;;;;;;;;;;;;20.22;90.12;98897.27;2242918;79;20094;-60
2022/09/24 09:58:04;;;;;;;;;;;;;;;20.17;90.90;98896.91;2217783;79;20437;-59
2022/09/24 10:01:05;;;;;;;;;;;;;;;20.20;87.67;98891.27;2242645;79;20083;-59
2022/09/24 10:04:06;;;;;;;;;;;;;;;20.02;84.84;98888.61;2243440;79;20445;-59
2022/09/24 10:07:08;;;;;;;;;;;;;;;19.85;85.82;98883.63;2244758;79;20101;-58
2022/09/24 10:10:09;;;;;;;;;;;;;;;19.52;81.47;98879.77;2243319;79;20156;-59
2022/09/24 10:13:11;;;;;;;;;;;;;;;19.54;85.63;98875.16;2243360;79;20134;-59
2022/09/24 10:16:14;;;;;;;;;;;;;;;19.46;84.23;98875.88;2241301;79;20101;-59
2022/09/24 10:19:16;;;;;;;;;;;;;;;19.41;83.75;98875.50;2243939;79;20106;-59
2022/09/24 10:22:17;;;;;;;;;;;;;;;19.55;85.39;98874.14;2242927;79;20130;-59
2022/09/24 10:25:19;;;;;;;;;;;;;;;19.46;82.09;98869.73;2240427;79;20094;-59
2022/09/24 10:31:24;;;;;;;;;;;;;;;18.82;83.22;98865.58;2220808;79;20107;-59
2022/09/24 10:34:26;;;;;;;;;;;;;;;18.85;82.83;98860.83;2244398;79;20130;-59
2022/09/24 10:37:27;;;;;;;;;;;;;;;19.01;83.76;98853.59;2241675;79;20102;-59
2022/09/24 10:40:30;;;;;;;;;;;;;;;19.36;84.54;98855.98;2250247;79;20401;-59
2022/09/24 10:43:32;;;;;;;;;;;;;;;19.69;80.70;98852.84;2248207;79;20141;-59
2022/09/24 10:46:33;;;;;;;;;;;;;;;19.76;80.26;98853.09;2237323;79;20142;-59
2022/09/24 10:49:35;;;;;;;;;;;;;;;19.80;82.01;98851.83;2245207;79;20188;-59
2022/09/24 10:52:37;;;;;;;;;;;;;;;20.07;79.81;98847.73;2243276;79;20106;-59
2022/09/24 10:55:39;;;;;;;;;;;;;;;20.31;78.21;98850.73;2243858;79;20094;-59
2022/09/24 10:58:40;;;;;;;;;;;;;;;20.37;77.58;98847.44;2240074;79;20420;-59
2022/09/24 11:01:42;;;;;;;;;;;;;;;20.27;76.35;98849.37;2244325;79;20157;-59
2022/09/24 11:04:44;;;;;;;;;;;;;;;20.05;71.37;98847.03;2243706;79;20197;-58
2022/09/24 11:07:46;;;;;;;;;;;;;;;19.80;71.45;98849.99;2243819;79;20396;-58
2022/09/24 11:10:50;;;;;;;;;;;;;;;19.69;69.43;98842.20;2240926;79;20208;-59
2022/09/24 11:13:53;;;;;;;;;;;;;;;19.87;70.01;98839.08;2216049;79;20393;-59
2022/09/24 11:16:54;;;;;;;;;;;;;;;20.07;69.62;98846.91;2211209;79;20126;-59
2022/09/24 11:19:56;;;;;;;;;;;;;;;20.35;66.94;98845.44;2243103;79;20102;-59
2022/09/24 11:22:58;;;;;;;;;;;;;;;20.55;68.92;98842.91;2244978;79;20098;-59
2022/09/24 11:25:59;;;;;;;;;;;;;;;20.42;65.44;98842.50;2242541;79;20390;-58
2022/09/24 11:29:00;;;;;;;;;;;;;;;20.64;66.44;98842.95;2243627;79;20117;-58
2022/09/24 11:32:04;;;;;;;;;;;;;;;20.81;64.67;98841.25;2241055;79;20138;-59
2022/09/24 11:35:06;;;;;;;;;;;;;;;20.82;64.72;98844.27;2218418;79;20094;-59
2022/09/24 11:38:07;;;;;;;;;;;;;;;20.83;66.34;98844.58;2242926;79;20456;-59
2022/09/24 11:41:10;;;;;;;;;;;;;;;20.92;64.51;98842.31;2243068;79;20106;-59
2022/09/24 11:44:12;;;;;;;;;;;;;;;20.85;64.76;98841.28;2240777;79;20103;-59
2022/09/24 11:47:14;;;;;;;;;;;;;;;20.68;64.38;98839.84;2243893;79;20146;-59
2022/09/24 11:50:15;;;;;;;;;;;;;;;20.70;64.43;98845.87;2242479;79;20101;-59
2022/09/24 11:53:17;;;;;;;;;;;;;;;20.60;64.96;98841.09;2241362;79;20106;-59
2022/09/24 11:56:18;;;;;;;;;;;;;;;20.51;62.65;98831.39;2241179;79;20561;-59
2022/09/24 11:59:20;;;;;;;;;;;;;;;20.42;62.87;98837.16;2243696;79;20134;-58
2022/09/24 12:02:22;;;;;;;;;;;;;;;20.47;64.44;98836.69;2243992;79;20416;-58
2022/09/24 12:05:24;;;;;;;;;;;;;;;20.54;63.22;98831.08;2243483;79;20483;-59
2022/09/24 12:08:27;;;;;;;;;;;;;;;20.50;64.13;98833.23;2243674;79;20148;-59
2022/09/24 12:11:29;;;;;;;;;;;;;;;20.57;62.81;98829.42;2237502;79;20105;-59
2022/09/24 12:14:31;;;;;;;;;;;;;;;20.46;63.85;98825.69;2242583;79;20130;-59
2022/09/24 12:17:33;;;;;;;;;;;;;;;20.41;64.37;98819.50;2245253;79;20416;-59
2022/09/24 12:20:34;;;;;;;;;;;;;;;20.41;63.21;98812.37;2242520;79;20154;-59
2022/09/24 12:23:38;;;;;;;;;;;;;;;20.30;63.46;98817.09;2241764;79;20117;-59
2022/09/24 12:26:39;;;;;;;;;;;;;;;20.25;63.91;98816.24;2248777;79;20107;-59
2022/09/24 12:35:48;;;;;;;;;;;;;;;20.77;63.31;98814.07;2221206;79;20106;-59
2022/09/24 12:38:50;;;;;;;;;;;;;;;20.94;62.85;98809.14;2241217;79;20106;-59
2022/09/24 12:41:55;;;;;;;;;;;;;;;21.14;62.88;98807.56;2247110;79;20106;-59
2022/09/24 12:44:55;;;;;;;;;;;;;;;21.38;62.47;98802.80;2221922;79;20107;-59
2022/09/24 12:47:56;;;;;;;;;;;;;;;21.27;62.35;98799.92;2244382;79;20397;-60
2022/09/24 12:50:58;;;;;;;;;;;;;;;20.93;60.50;98804.83;2240891;79;20150;-59
2022/09/24 12:54:00;;;;;;;;;;;;;;;20.53;61.63;98803.61;2245120;79;20110;-59
2022/09/24 12:57:02;;;;;;;;;;;;;;;20.23;61.00;98809.74;2241706;79;20121;-58
2022/09/24 13:00:04;;;;;;;;;;;;;;;19.88;60.80;98813.29;2243071;79;20156;-58
2022/09/24 13:03:06;;;;;;;;;;;;;;;19.64;61.32;98811.21;2243767;79;20117;-59
2022/09/24 13:06:08;;;;;;;;;;;;;;;19.46;62.78;98811.22;2241794;79;20094;-59
2022/09/24 13:09:09;;;;;;;;;;;;;;;19.39;63.29;98806.52;2243589;79;20094;-58
2022/09/24 13:12:13;;;;;;;;;;;;;;;19.32;62.72;98812.09;2242597;79;20098;-58
2022/09/24 13:15:14;;;;;;;;;;;;;;;19.44;63.55;98810.05;2242808;79;20111;-58
2022/09/24 13:18:16;;;;;;;;;;;;;;;19.64;64.92;98805.89;2246957;79;20097;-58
2022/09/24 13:21:17;;;;;;;;;;;;;;;20.24;63.30;98803.44;2245180;79;20129;-59
2022/09/24 13:24:18;;;;;;;;;;;;;;;20.74;64.79;98797.07;2242417;79;20417;-59
2022/09/24 13:27:20;;;;;;;;;;;;;;;21.16;62.67;98799.39;2244118;79;20107;-60
2022/09/24 13:30:22;;;;;;;;;;;;;;;21.25;60.68;98793.92;2244417;79;20119;-60
2022/09/24 13:33:23;;;;;;;;;;;;;;;21.44;60.85;98791.45;2241433;79;20114;-60
2022/09/24 13:36:25;;;;;;;;;;;;;;;21.28;60.43;98789.59;2242787;79;20139;-59
2022/09/24 13:39:27;;;;;;;;;;;;;;;21.58;60.73;98783.86;2244120;79;20408;-59
2022/09/24 13:42:28;;;;;;;;;;;;;;;21.45;58.90;98789.64;2238065;79;20099;-59
2022/09/24 13:45:30;;;;;;;;;;;;;;;21.07;59.64;98795.36;2242680;79;20109;-59
2022/09/24 13:48:31;;;;;;;;;;;;;;;20.81;58.17;98781.28;2249162;79;20086;-59
2022/09/24 13:51:33;;;;;;;;;;;;;;;20.31;59.34;98783.65;2244561;79;20102;-59
2022/09/24 13:54:35;;;;;;;;;;;;;;;20.12;61.00;98780.70;2245665;79;20555;-59
2022/09/24 13:57:37;;;;;;;;;;;;;;;20.11;62.32;98772.88;2237291;79;20153;-59
2022/09/24 14:00:38;;;;;;;;;;;;;;;20.13;61.54;98774.40;2241680;79;20121;-60
2022/09/24 14:03:41;;;;;;;;;;;;;;;20.00;60.62;98771.31;2216982;79;20118;-59
2022/09/24 14:06:43;;;;;;;;;;;;;;;19.84;61.31;98776.84;2243027;79;20087;-59
2022/09/24 14:09:47;;;;;;;;;;;;;;;19.81;61.65;98769.66;2238769;79;20462;-59
2022/09/24 14:12:48;;;;;;;;;;;;;;;19.83;61.80;98761.03;2220684;79;20103;-59
2022/09/24 14:15:49;;;;;;;;;;;;;;;20.34;63.15;98761.20;2243358;79;20126;-59
2022/09/24 14:18:51;;;;;;;;;;;;;;;20.61;61.87;98750.84;2244354;79;20082;-59
2022/09/24 14:21:53;;;;;;;;;;;;;;;20.27;61.45;98755.69;2249010;79;20094;-60
2022/09/24 14:24:54;;;;;;;;;;;;;;;19.87;61.78;98762.41;2246274;79;20114;-59
2022/09/24 14:27:56;;;;;;;;;;;;;;;19.82;62.41;98758.03;2244247;79;20446;-59
2022/09/24 14:30:57;;;;;;;;;;;;;;;19.73;62.12;98752.60;2237329;79;20098;-58
2022/09/24 14:37:02;;;;;;;;;;;;;;;19.69;62.53;98757.06;2220252;79;20188;-58
2022/09/24 14:40:04;;;;;;;;;;;;;;;19.98;62.91;98752.81;2242208;79;20547;-58
2022/09/24 14:43:06;;;;;;;;;;;;;;;19.89;63.25;98747.92;2243880;79;20200;-59
2022/09/24 14:46:08;;;;;;;;;;;;;;;19.99;63.02;98745.17;2242120;79;21004;-58
2022/09/24 14:49:09;;;;;;;;;;;;;;;19.97;63.52;98735.66;2240607;79;20107;-59
2022/09/24 14:52:11;;;;;;;;;;;;;;;20.16;62.33;98735.98;2239909;79;20087;-59
2022/09/24 14:55:14;;;;;;;;;;;;;;;20.18;62.92;98734.80;2240934;79;20151;-59
2022/09/24 14:58:15;;;;;;;;;;;;;;;20.26;62.56;98732.70;2244253;79;20381;-59
2022/09/24 15:01:17;;;;;;;;;;;;;;;20.21;63.36;98738.98;2242953;79;20102;-59
2022/09/24 15:04:18;;;;;;;;;;;;;;;19.92;62.89;98739.31;2239190;79;20233;-58
2022/09/24 15:07:20;;;;;;;;;;;;;;;19.50;63.33;98742.11;2245087;79;20449;-59
2022/09/24 15:10:22;;;;;;;;;;;;;;;19.04;64.63;98748.80;2242414;79;20169;-59
2022/09/24 15:13:24;;;;;;;;;;;;;;;18.59;64.96;98745.58;2243964;79;20125;-58
2022/09/24 15:16:25;;;;;;;;;;;;;;;18.25;65.93;98746.97;2243912;79;20416;-58
2022/09/24 15:19:29;;;;;;;;;;;;;;;17.92;66.71;98747.81;2249827;79;20103;-57
2022/09/24 15:22:30;;;;;;;;;;;;;;;17.73;67.73;98741.17;2212393;79;20126;-59
2022/09/24 15:25:32;;;;;;;;;;;;;;;17.57;69.19;98743.92;2245004;79;20174;-58
2022/09/24 15:28:33;;;;;;;;;;;;;;;17.40;69.60;98744.13;2241377;79;20441;-57
2022/09/24 15:31:35;;;;;;;;;;;;;;;17.26;70.45;98745.87;2244308;79;20150;-58
2022/09/24 15:34:36;;;;;;;;;;;;;;;17.14;71.40;98748.64;2241034;79;20094;-58
2022/09/24 15:37:37;;;;;;;;;;;;;;;16.96;72.31;98743.66;2243239;79;20087;-58
2022/09/24 15:40:39;;;;;;;;;;;;;;;16.77;73.38;98741.27;2242960;79;20178;-58
2022/09/24 15:43:40;;;;;;;;;;;;;;;16.66;74.10;98748.49;2240463;79;20502;-58
2022/09/24 15:46:42;;;;;;;;;;;;;;;16.55;75.36;98741.01;2242733;79;20269;-58
2022/09/24 15:49:44;;;;;;;;;;;;;;;16.45;76.33;98742.78;2246413;79;20094;-58
2022/09/24 15:52:45;;;;;;;;;;;;;;;16.32;77.57;98743.00;2242826;79;20102;-58
2022/09/24 15:58:50;;;;;;;;;;;;;;;16.10;80.36;98734.27;2212949;79;20133;-57
2022/09/24 16:01:52;;;;;;;;;;;;;;;15.96;82.58;98733.74;2244260;79;20110;-58
2022/09/24 16:04:53;;;;;;;;;;;;;;;15.77;84.80;98735.26;2242322;79;20150;-58
2022/09/24 16:07:55;;;;;;;;;;;;;;;15.69;86.05;98738.55;2242753;79;20102;-58
2022/09/24 16:10:58;;;;;;;;;;;;;;;15.61;87.43;98737.03;2244748;79;20430;-58
2022/09/24 16:13:59;;;;;;;;;;;;;;;15.51;87.62;98738.77;2222221;79;20094;-58